METAR Data
IDs: Format: Raw Decoded Include TAF

Data at: 1331 UTC 24 Jan 2021

KPOU 241253Z 30008G18KT 10SM CLR M07/M17 A3018 RMK AO2 SLP218 T10721167
KPOU 241153Z AUTO 29009KT 10SM CLR M07/M17 A3018 RMK AO2 SLP217 T10721172 11056 21072 51012 TSNO
KPOU 241053Z AUTO 30012G19KT 10SM CLR M07/M17 A3016 RMK AO2 SLP213 T10671172 TSNO
KPOU 240953Z AUTO 30013G20KT 10SM CLR M07/M18 A3015 RMK AO2 SLP209 T10671178 TSNO
KPOU 240853Z AUTO 29016G22KT 10SM CLR M07/M17 A3014 RMK AO2 SLP205 T10671172 51005 TSNO
KPOU 240753Z AUTO 28011KT 10SM CLR M06/M16 A3014 RMK AO2 SLP204 T10611156 TSNO
KPOU 240653Z AUTO 28010KT 10SM CLR M06/M16 A3014 RMK AO2 SLP204 T10611156 TSNO
KPOU 240553Z AUTO 29007KT 10SM CLR M06/M15 A3012 RMK AO2 SLP200 T10611150 11044 21067 58007 TSNO
KPOU 240453Z AUTO 28005KT 10SM CLR M06/M15 A3013 RMK AO2 SLP203 T10611150 400061061 TSNO
KPOU 240353Z AUTO 00000KT 10SM CLR M06/M15 A3014 RMK AO2 SLP207 T10611150 TSNO
KPOU 240253Z AUTO 29007KT 10SM CLR M06/M15 A3015 RMK AO2 SLP207 T10561150 51006 TSNO
KPOU 240153Z AUTO 29011KT 10SM CLR M06/M16 A3015 RMK AO2 SLP207 T10561156 TSNO
KPOU 240053Z AUTO 29012G17KT 10SM CLR M05/M16 A3014 RMK AO2 SLP207 T10501156 TSNO
KPOU 232353Z AUTO 28010KT 10SM CLR M04/M16 A3013 RMK AO2 SLP201 T10441161 10000 21044 53025 TSNO
KPOU 232253Z AUTO 28008KT 10SM CLR M04/M17 A3010 RMK AO2 SLP192 T10391167 TSNO
KPOU 232153Z AUTO 30012KT 10SM CLR M02/M17 A3007 RMK AO2 SLP180 T10221172 TSNO
KPOU 232053Z AUTO 33010G19KT 10SM CLR M02/M17 A3005 RMK AO2 SLP175 T10171172 53014 TSNO
KPOU 231953Z 33013G19KT 10SM CLR M01/M17 A3004 RMK AO2 SLP170 T10111167
KPOU 231853Z 34014G19KT 10SM CLR M01/M17 A3002 RMK AO2 SLP164 T10061167
KPOU 231753Z 28015G21KT 10SM BKN055 M01/M14 A3001 RMK AO2 SLP161 T10111144 11006 21044 58003
KPOU 231653Z 32013G20KT 10SM CLR M01/M14 A3002 RMK AO2 SLP164 T10111139
KPOU 231553Z 32017G25KT 10SM CLR M02/M14 A3003 RMK AO2 SLP168 T10171144
KPOU 231453Z 31012G19KT 10SM BKN050 BKN055 M02/M14 A3002 RMK AO2 SLP164 T10171139 51016
KPOU 231353Z 27008KT 10SM OVC050 M03/M12 A3001 RMK AO2 SLP160 T10281117
KPOU 231253Z 27008KT 10SM OVC046 M04/M12 A2999 RMK AO2 SLP154 T10391122
KPOU 231153Z AUTO 28009KT 10SM SCT049 M04/M13 A2997 RMK AO2 SLP147 T10391128 11006 21044 53015 TSNO
KPOU 231053Z AUTO 27013KT 10SM CLR M03/M13 A2995 RMK AO2 SLP141 T10331128 TSNO
KPOU 230953Z AUTO 29010KT 10SM BKN080 M03/M12 A2994 RMK AO2 SLP136 T10331122 TSNO
KPOU 230853Z AUTO 28008KT 10SM FEW075 M03/M11 A2993 RMK AO2 SLP132 T10281111 51016 TSNO
KPOU 230753Z AUTO 27008KT 10SM OVC075 M02/M11 A2992 RMK AO2 SLP130 T10171106 TSNO
KPOU 230653Z AUTO 27012KT 10SM BKN065 M01/M11 A2991 RMK AO2 SLP125 T10111106 TSNO
KPOU 230553Z AUTO 29007KT 10SM FEW070 M01/M10 A2988 RMK AO2 SLP116 T10061100 10028 21006 51008 TSNO
KPOU 230453Z AUTO 29009KT 10SM OVC060 01/M11 A2987 RMK AO2 SLP114 T00061106 400611039 TSNO
KPOU 230353Z AUTO 30009KT 10SM SCT047 OVC060 01/M09 A2987 RMK AO2 SLP111 T00111089 TSNO
KPOU 230253Z AUTO 27008KT 10SM OVC060 01/M07 A2985 RMK AO2 SLP107 T00111072 51018 TSNO
KPOU 230153Z AUTO 30006KT 10SM OVC060 01/M07 A2984 RMK AO2 SLP102 T00111067 TSNO